Time,TemperatureF,DewpointF,PressureIn,WindDirection,WindDirectionDegrees,WindSpeedMPH,WindSpeedGustMPH,Humidity,HourlyPrecipIn,Conditions,Clouds,dailyrainin,SolarRadiationWatts/m^2,SoftwareType,DateUTC
2013-11-01 00:12:00,31.0,29.0,-100.00,WNW,301,8.0,29.0,92,0.00,,,-99.99,0.000000,,2013-11-01 06:12:00,
2013-11-01 00:22:00,31.0,29.0,-100.00,WNW,301,8.0,29.0,92,0.00,,,-99.99,0.000000,,2013-11-01 06:22:00,
2013-11-01 00:32:00,31.0,29.0,-100.00,WNW,301,8.0,29.0,92,0.00,,,-99.99,0.000000,,2013-11-01 06:32:00,
2013-11-01 01:12:00,30.0,29.0,-100.00,NW,319,7.0,21.0,96,0.00,,,-99.99,0.000000,,2013-11-01 07:12:00,
2013-11-01 01:21:00,30.0,29.0,-100.00,NW,319,7.0,21.0,96,0.00,,,-99.99,0.000000,,2013-11-01 07:21:00,
2013-11-01 01:32:00,30.0,29.0,-100.00,NW,319,7.0,21.0,96,0.00,,,-99.99,0.000000,,2013-11-01 07:32:00,
2013-11-01 02:12:00,30.0,27.0,-100.00,NW,321,7.0,20.0,90,0.00,,,-99.99,0.000000,,2013-11-01 08:12:00,
2013-11-01 02:21:00,30.0,27.0,-100.00,NW,321,7.0,20.0,90,0.00,,,-99.99,0.000000,,2013-11-01 08:21:00,
2013-11-01 02:32:00,30.0,27.0,-100.00,NW,321,7.0,20.0,90,0.00,,,-99.99,0.000000,,2013-11-01 08:32:00,
2013-11-01 03:12:00,29.0,24.0,-100.00,NNW,334,7.0,17.0,82,0.00,,,-99.99,0.000000,,2013-11-01 09:12:00,
2013-11-01 03:21:00,29.0,24.0,-100.00,NNW,334,7.0,17.0,82,0.00,,,-99.99,0.000000,,2013-11-01 09:21:00,
2013-11-01 03:33:00,29.0,24.0,-100.00,NNW,334,7.0,17.0,82,0.00,,,-99.99,0.000000,,2013-11-01 09:33:00,
2013-11-01 04:13:00,29.0,25.0,-100.00,NW,325,5.0,14.0,85,0.00,,,-99.99,0.000000,,2013-11-01 10:13:00,
2013-11-01 04:23:00,29.0,25.0,-100.00,NW,325,5.0,14.0,85,0.00,,,-99.99,0.000000,,2013-11-01 10:23:00,
2013-11-01 04:33:00,29.0,25.0,-100.00,NW,325,5.0,14.0,85,0.00,,,-99.99,0.000000,,2013-11-01 10:33:00,
2013-11-01 05:12:00,29.0,27.0,-100.00,WNW,297,7.0,14.0,92,0.00,,,-99.99,0.000000,,2013-11-01 11:12:00,
2013-11-01 05:22:00,29.0,27.0,-100.00,WNW,297,7.0,14.0,92,0.00,,,-99.99,0.000000,,2013-11-01 11:22:00,
2013-11-01 05:33:00,29.0,27.0,-100.00,WNW,297,7.0,14.0,92,0.00,,,-99.99,0.000000,,2013-11-01 11:33:00,
2013-11-01 06:12:00,28.0,26.0,-100.00,WNW,297,7.0,18.0,93,0.00,,,-99.99,0.000000,,2013-11-01 12:12:00,
2013-11-01 06:22:00,28.0,26.0,-100.00,WNW,297,7.0,18.0,93,0.00,,,-99.99,0.000000,,2013-11-01 12:22:00,
2013-11-01 06:32:00,28.0,26.0,-100.00,WNW,297,7.0,18.0,93,0.00,,,-99.99,0.000000,,2013-11-01 12:32:00,
2013-11-01 07:12:00,28.0,25.0,-100.00,NW,308,9.0,23.0,89,0.00,,,-99.99,0.000000,,2013-11-01 13:12:00,
2013-11-01 07:22:00,28.0,25.0,-100.00,NW,308,9.0,23.0,89,0.00,,,-99.99,0.000000,,2013-11-01 13:22:00,
2013-11-01 07:32:00,28.0,25.0,-100.00,NW,308,9.0,23.0,89,0.00,,,-99.99,0.000000,,2013-11-01 13:32:00,
2013-11-01 08:11:00,28.0,24.0,-100.00,NW,316,8.0,20.0,83,0.00,,,-99.99,1.000000,,2013-11-01 14:11:00,
2013-11-01 08:22:00,28.0,24.0,-100.00,NW,316,8.0,20.0,83,0.00,,,-99.99,1.000000,,2013-11-01 14:22:00,
2013-11-01 08:32:00,28.0,24.0,-100.00,NW,316,8.0,20.0,83,0.00,,,-99.99,1.000000,,2013-11-01 14:32:00,
2013-11-01 09:11:00,28.0,24.0,-100.00,NW,307,9.0,19.0,85,0.00,,,-99.99,26.000000,,2013-11-01 15:11:00,
2013-11-01 09:22:00,28.0,24.0,-100.00,NW,307,9.0,19.0,85,0.00,,,-99.99,26.000000,,2013-11-01 15:22:00,
2013-11-01 09:33:00,28.0,24.0,-100.00,NW,307,9.0,19.0,85,0.00,,,-99.99,26.000000,,2013-11-01 15:33:00,
2013-11-01 10:12:00,28.0,23.0,-100.00,WNW,303,11.0,21.0,82,0.00,,,0.00,94.000000,,2013-11-01 16:12:00,
2013-11-01 10:23:00,28.0,23.0,-100.00,WNW,303,11.0,21.0,82,0.00,,,0.00,94.000000,,2013-11-01 16:23:00,
2013-11-01 10:32:00,28.0,23.0,-100.00,WNW,303,11.0,21.0,82,0.00,,,0.00,94.000000,,2013-11-01 16:32:00,
2013-11-01 11:12:00,32.0,22.0,-100.00,WNW,301,13.0,26.0,66,0.00,,,0.00,255.000000,,2013-11-01 17:12:00,
2013-11-01 11:22:00,32.0,22.0,-100.00,WNW,301,13.0,26.0,66,0.00,,,0.00,255.000000,,2013-11-01 17:22:00,
2013-11-01 11:33:00,32.0,22.0,-100.00,WNW,301,13.0,26.0,66,0.00,,,0.00,255.000000,,2013-11-01 17:33:00,
2013-11-01 12:22:00,33.0,21.0,-100.00,WNW,295,12.0,25.0,61,0.04,,,0.04,404.000000,,2013-11-01 18:22:00,
2013-11-01 12:32:00,33.0,21.0,-100.00,WNW,295,12.0,25.0,61,0.04,,,0.04,404.000000,,2013-11-01 18:32:00,
2013-11-01 13:12:00,34.0,19.0,-100.00,NW,307,10.0,24.0,53,0.02,,,0.06,403.000000,,2013-11-01 19:12:00,
2013-11-01 13:21:00,34.0,19.0,-100.00,NW,307,10.0,24.0,53,0.02,,,0.06,403.000000,,2013-11-01 19:21:00,
2013-11-01 13:32:00,34.0,19.0,-100.00,NW,307,10.0,24.0,53,0.02,,,0.06,403.000000,,2013-11-01 19:32:00,
2013-11-01 14:12:00,33.0,18.0,-100.00,NW,311,8.0,24.0,54,0.00,,,0.06,275.000000,,2013-11-01 20:12:00,
2013-11-01 14:22:00,33.0,18.0,-100.00,NW,311,8.0,24.0,54,0.00,,,0.06,275.000000,,2013-11-01 20:22:00,
2013-11-01 14:32:00,33.0,18.0,-100.00,NW,311,8.0,24.0,54,0.00,,,0.06,275.000000,,2013-11-01 20:32:00,
2013-11-01 15:12:00,35.0,18.0,-100.00,WNW,303,11.0,25.0,50,0.00,,,0.06,435.000000,,2013-11-01 21:12:00,
2013-11-01 15:22:00,35.0,18.0,-100.00,WNW,303,11.0,25.0,50,0.00,,,0.06,435.000000,,2013-11-01 21:22:00,
2013-11-01 15:34:00,35.0,18.0,-100.00,WNW,303,11.0,25.0,50,0.00,,,0.06,435.000000,,2013-11-01 21:34:00,
2013-11-01 16:14:00,36.0,17.0,-100.00,NW,305,8.0,23.0,45,0.00,,,0.06,396.000000,,2013-11-01 22:14:00,
2013-11-01 16:24:00,36.0,17.0,-100.00,NW,305,8.0,23.0,45,0.00,,,0.06,396.000000,,2013-11-01 22:24:00,
2013-11-01 16:34:00,36.0,17.0,-100.00,NW,305,8.0,23.0,45,0.00,,,0.06,396.000000,,2013-11-01 22:34:00,
2013-11-01 17:12:00,33.0,17.0,-100.00,NW,306,8.0,26.0,51,0.00,,,0.06,220.000000,,2013-11-01 23:12:00,
2013-11-01 17:22:00,33.0,17.0,-100.00,NW,306,8.0,26.0,51,0.00,,,0.06,220.000000,,2013-11-01 23:22:00,
2013-11-01 17:34:00,33.0,17.0,-100.00,NW,306,8.0,26.0,51,0.00,,,0.06,220.000000,,2013-11-01 23:34:00,
2013-11-01 18:11:00,31.0,17.0,-100.00,NW,319,4.0,15.0,55,0.00,,,0.06,38.000000,,2013-11-02 00:11:00,
2013-11-01 18:22:00,31.0,17.0,-100.00,NW,319,4.0,15.0,55,0.00,,,0.06,38.000000,,2013-11-02 00:22:00,
2013-11-01 18:32:00,31.0,17.0,-100.00,NW,319,4.0,15.0,55,0.00,,,0.06,38.000000,,2013-11-02 00:32:00,
2013-11-01 19:12:00,29.0,15.0,-100.00,NW,304,4.0,13.0,56,0.00,,,0.06,2.000000,,2013-11-02 01:12:00,
2013-11-01 19:22:00,29.0,15.0,-100.00,NW,304,4.0,13.0,56,0.00,,,0.06,2.000000,,2013-11-02 01:22:00,
2013-11-01 19:32:00,29.0,15.0,-100.00,NW,304,4.0,13.0,56,0.00,,,0.06,2.000000,,2013-11-02 01:32:00,
2013-11-01 20:11:00,27.0,16.0,-100.00,North,351,1.0,7.0,62,0.00,,,0.06,0.000000,,2013-11-02 02:11:00,
2013-11-01 20:22:00,27.0,16.0,-100.00,North,351,1.0,7.0,62,0.00,,,0.06,0.000000,,2013-11-02 02:22:00,
2013-11-01 20:32:00,27.0,16.0,-100.00,North,351,1.0,7.0,62,0.00,,,0.06,0.000000,,2013-11-02 02:32:00,
2013-11-01 21:11:00,25.0,15.0,-100.00,North,9,2.0,4.0,66,0.00,,,0.06,0.000000,,2013-11-02 03:11:00,
2013-11-01 21:22:00,25.0,15.0,-100.00,North,9,2.0,4.0,66,0.00,,,0.06,0.000000,,2013-11-02 03:22:00,
2013-11-01 21:34:00,25.0,15.0,-100.00,North,9,2.0,4.0,66,0.00,,,0.06,0.000000,,2013-11-02 03:34:00,
2013-11-01 22:13:00,24.0,15.0,-100.00,NNE,12,2.0,3.0,68,0.00,,,0.06,0.000000,,2013-11-02 04:13:00,
2013-11-01 22:24:00,24.0,15.0,-100.00,NNE,12,2.0,3.0,68,0.00,,,0.06,0.000000,,2013-11-02 04:24:00,
2013-11-01 22:34:00,24.0,15.0,-100.00,NNE,12,2.0,3.0,68,0.00,,,0.06,0.000000,,2013-11-02 04:34:00,
2013-11-01 23:13:00,20.0,15.0,-100.00,NNE,21,0.0,3.0,80,0.00,,,0.06,0.000000,,2013-11-02 05:13:00,
2013-11-01 23:22:00,20.0,15.0,-100.00,NNE,21,0.0,3.0,80,0.00,,,0.06,0.000000,,2013-11-02 05:22:00,
2013-11-01 23:34:00,20.0,15.0,-100.00,NNE,21,0.0,3.0,80,0.00,,,0.06,0.000000,,2013-11-02 05:34:00,